sensor_id;sensor_type;location;lat;lon;timestamp;P1;durP1;ratioP1;P2;durP2;ratioP2
6667;SDS011;3370;47.712;9.082;2023-02-21T00:01:56;17.03;;;9.80;;
6667;SDS011;3370;47.712;9.082;2023-02-21T00:04:40;11.07;;;9.37;;
6667;SDS011;3370;47.712;9.082;2023-02-21T00:07:25;16.40;;;9.80;;
6667;SDS011;3370;47.712;9.082;2023-02-21T00:10:13;13.77;;;9.77;;
6667;SDS011;3370;47.712;9.082;2023-02-21T00:12:58;10.60;;;8.63;;
6667;SDS011;3370;47.712;9.082;2023-02-21T00:15:43;16.30;;;9.93;;
6667;SDS011;3370;47.712;9.082;2023-02-21T00:18:27;12.63;;;10.07;;
6667;SDS011;3370;47.712;9.082;2023-02-21T00:21:17;12.97;;;10.47;;
6667;SDS011;3370;47.712;9.082;2023-02-21T00:24:01;14.40;;;11.03;;
6667;SDS011;3370;47.712;9.082;2023-02-21T00:26:46;20.13;;;10.10;;
6667;SDS011;3370;47.712;9.082;2023-02-21T00:29:30;18.40;;;11.23;;
6667;SDS011;3370;47.712;9.082;2023-02-21T00:32:15;14.33;;;10.10;;
6667;SDS011;3370;47.712;9.082;2023-02-21T00:34:59;14.80;;;10.70;;
6667;SDS011;3370;47.712;9.082;2023-02-21T00:37:43;19.30;;;10.90;;
6667;SDS011;3370;47.712;9.082;2023-02-21T00:40:32;16.20;;;10.50;;
6667;SDS011;3370;47.712;9.082;2023-02-21T00:43:16;14.00;;;9.57;;
6667;SDS011;3370;47.712;9.082;2023-02-21T00:46:00;12.57;;;9.27;;
6667;SDS011;3370;47.712;9.082;2023-02-21T00:48:45;14.30;;;11.47;;
6667;SDS011;3370;47.712;9.082;2023-02-21T00:51:29;13.47;;;10.60;;
6667;SDS011;3370;47.712;9.082;2023-02-21T00:54:13;13.90;;;10.97;;
6667;SDS011;3370;47.712;9.082;2023-02-21T00:56:58;16.50;;;11.07;;
6667;SDS011;3370;47.712;9.082;2023-02-21T00:59:42;14.93;;;10.40;;
6667;SDS011;3370;47.712;9.082;2023-02-21T01:02:26;18.00;;;12.43;;
6667;SDS011;3370;47.712;9.082;2023-02-21T01:05:11;13.67;;;10.83;;
6667;SDS011;3370;47.712;9.082;2023-02-21T01:07:55;13.83;;;11.43;;
6667;SDS011;3370;47.712;9.082;2023-02-21T01:10:40;15.77;;;11.00;;
6667;SDS011;3370;47.712;9.082;2023-02-21T01:13:24;17.47;;;11.57;;
6667;SDS011;3370;47.712;9.082;2023-02-21T01:16:08;15.77;;;11.43;;
6667;SDS011;3370;47.712;9.082;2023-02-21T01:18:53;21.77;;;11.63;;
6667;SDS011;3370;47.712;9.082;2023-02-21T01:21:37;17.33;;;12.13;;
6667;SDS011;3370;47.712;9.082;2023-02-21T01:24:21;18.23;;;13.23;;
6667;SDS011;3370;47.712;9.082;2023-02-21T01:27:05;17.73;;;12.10;;
6667;SDS011;3370;47.712;9.082;2023-02-21T01:29:50;20.33;;;12.40;;
6667;SDS011;3370;47.712;9.082;2023-02-21T01:32:34;23.97;;;13.43;;
6667;SDS011;3370;47.712;9.082;2023-02-21T01:35:18;21.83;;;11.60;;
6667;SDS011;3370;47.712;9.082;2023-02-21T01:38:03;16.03;;;12.17;;
6667;SDS011;3370;47.712;9.082;2023-02-21T01:40:47;21.63;;;12.90;;
6667;SDS011;3370;47.712;9.082;2023-02-21T01:43:31;16.07;;;11.90;;
6667;SDS011;3370;47.712;9.082;2023-02-21T01:46:17;20.83;;;12.60;;
6667;SDS011;3370;47.712;9.082;2023-02-21T01:49:08;15.83;;;12.10;;
6667;SDS011;3370;47.712;9.082;2023-02-21T01:51:57;15.60;;;10.97;;
6667;SDS011;3370;47.712;9.082;2023-02-21T01:54:45;15.90;;;11.23;;
6667;SDS011;3370;47.712;9.082;2023-02-21T01:57:33;17.47;;;12.33;;
6667;SDS011;3370;47.712;9.082;2023-02-21T02:00:20;16.30;;;11.47;;
6667;SDS011;3370;47.712;9.082;2023-02-21T02:03:05;15.73;;;11.90;;
6667;SDS011;3370;47.712;9.082;2023-02-21T02:05:54;19.77;;;12.57;;
6667;SDS011;3370;47.712;9.082;2023-02-21T02:08:45;19.10;;;11.90;;
6667;SDS011;3370;47.712;9.082;2023-02-21T02:11:45;20.50;;;10.80;;
6667;SDS011;3370;47.712;9.082;2023-02-21T02:17:53;16.30;;;12.10;;
6667;SDS011;3370;47.712;9.082;2023-02-21T02:23:42;15.20;;;11.73;;
6667;SDS011;3370;47.712;9.082;2023-02-21T02:26:34;21.40;;;11.20;;
6667;SDS011;3370;47.712;9.082;2023-02-21T02:35:49;16.27;;;11.30;;
6667;SDS011;3370;47.712;9.082;2023-02-21T02:39:01;17.47;;;11.53;;
6667;SDS011;3370;47.712;9.082;2023-02-21T02:41:53;16.57;;;12.60;;
6667;SDS011;3370;47.712;9.082;2023-02-21T02:45:02;15.80;;;11.80;;
6667;SDS011;3370;47.712;9.082;2023-02-21T02:47:42;18.60;;;12.97;;
6667;SDS011;3370;47.712;9.082;2023-02-21T02:50:14;18.50;;;12.33;;
6667;SDS011;3370;47.712;9.082;2023-02-21T02:52:54;19.73;;;12.13;;
6667;SDS011;3370;47.712;9.082;2023-02-21T02:55:42;16.40;;;12.70;;
6667;SDS011;3370;47.712;9.082;2023-02-21T02:58:20;19.10;;;11.90;;
6667;SDS011;3370;47.712;9.082;2023-02-21T03:00:56;19.83;;;12.97;;
6667;SDS011;3370;47.712;9.082;2023-02-21T03:04:26;18.27;;;11.97;;
6667;SDS011;3370;47.712;9.082;2023-02-21T03:12:50;19.77;;;14.53;;
6667;SDS011;3370;47.712;9.082;2023-02-21T03:15:21;21.67;;;13.30;;
6667;SDS011;3370;47.712;9.082;2023-02-21T03:17:56;20.80;;;13.40;;
6667;SDS011;3370;47.712;9.082;2023-02-21T03:20:34;18.67;;;12.70;;
6667;SDS011;3370;47.712;9.082;2023-02-21T03:23:01;19.07;;;13.87;;
6667;SDS011;3370;47.712;9.082;2023-02-21T03:25:28;19.80;;;13.90;;
6667;SDS011;3370;47.712;9.082;2023-02-21T03:27:56;23.30;;;13.70;;
6667;SDS011;3370;47.712;9.082;2023-02-21T03:30:24;21.83;;;13.40;;
6667;SDS011;3370;47.712;9.082;2023-02-21T03:32:51;21.90;;;13.40;;
6667;SDS011;3370;47.712;9.082;2023-02-21T03:35:18;18.17;;;13.30;;
6667;SDS011;3370;47.712;9.082;2023-02-21T03:37:47;18.47;;;13.90;;
6667;SDS011;3370;47.712;9.082;2023-02-21T03:42:52;18.57;;;12.90;;
6667;SDS011;3370;47.712;9.082;2023-02-21T03:45:19;17.60;;;12.83;;
6667;SDS011;3370;47.712;9.082;2023-02-21T03:47:45;18.93;;;13.37;;
6667;SDS011;3370;47.712;9.082;2023-02-21T03:50:11;17.60;;;13.57;;
6667;SDS011;3370;47.712;9.082;2023-02-21T03:52:37;16.70;;;13.30;;
6667;SDS011;3370;47.712;9.082;2023-02-21T03:55:04;20.47;;;13.40;;
6667;SDS011;3370;47.712;9.082;2023-02-21T03:57:32;26.60;;;14.10;;
6667;SDS011;3370;47.712;9.082;2023-02-21T03:59:58;20.40;;;13.80;;
6667;SDS011;3370;47.712;9.082;2023-02-21T04:02:24;20.33;;;13.30;;
6667;SDS011;3370;47.712;9.082;2023-02-21T04:04:50;19.93;;;14.27;;
6667;SDS011;3370;47.712;9.082;2023-02-21T04:07:17;25.70;;;14.33;;
6667;SDS011;3370;47.712;9.082;2023-02-21T04:09:44;17.17;;;13.13;;
6667;SDS011;3370;47.712;9.082;2023-02-21T04:12:11;22.90;;;13.87;;
6667;SDS011;3370;47.712;9.082;2023-02-21T04:14:37;18.73;;;13.03;;
6667;SDS011;3370;47.712;9.082;2023-02-21T04:17:03;20.07;;;14.07;;
6667;SDS011;3370;47.712;9.082;2023-02-21T04:19:29;21.07;;;15.20;;
6667;SDS011;3370;47.712;9.082;2023-02-21T04:21:55;27.10;;;14.50;;
6667;SDS011;3370;47.712;9.082;2023-02-21T04:24:21;19.27;;;13.57;;
6667;SDS011;3370;47.712;9.082;2023-02-21T04:26:47;19.67;;;13.70;;
6667;SDS011;3370;47.712;9.082;2023-02-21T04:29:13;20.33;;;13.53;;
6667;SDS011;3370;47.712;9.082;2023-02-21T04:31:38;21.83;;;14.30;;
6667;SDS011;3370;47.712;9.082;2023-02-21T04:34:04;20.63;;;14.60;;
6667;SDS011;3370;47.712;9.082;2023-02-21T04:36:30;22.60;;;14.40;;
6667;SDS011;3370;47.712;9.082;2023-02-21T04:38:56;26.83;;;16.93;;
6667;SDS011;3370;47.712;9.082;2023-02-21T04:41:22;18.30;;;11.50;;
6667;SDS011;3370;47.712;9.082;2023-02-21T04:43:48;23.13;;;13.80;;
6667;SDS011;3370;47.712;9.082;2023-02-21T04:46:15;18.20;;;13.57;;
6667;SDS011;3370;47.712;9.082;2023-02-21T04:48:45;27.20;;;14.07;;
6667;SDS011;3370;47.712;9.082;2023-02-21T04:51:15;23.33;;;14.17;;
6667;SDS011;3370;47.712;9.082;2023-02-21T04:53:45;17.53;;;12.30;;
6667;SDS011;3370;47.712;9.082;2023-02-21T04:56:13;17.70;;;13.57;;
6667;SDS011;3370;47.712;9.082;2023-02-21T04:58:42;20.03;;;14.27;;
6667;SDS011;3370;47.712;9.082;2023-02-21T05:01:09;17.63;;;13.00;;
6667;SDS011;3370;47.712;9.082;2023-02-21T05:03:36;17.73;;;12.77;;
6667;SDS011;3370;47.712;9.082;2023-02-21T05:06:02;19.87;;;14.10;;
6667;SDS011;3370;47.712;9.082;2023-02-21T05:08:28;17.83;;;12.83;;
6667;SDS011;3370;47.712;9.082;2023-02-21T05:10:54;18.83;;;13.40;;
6667;SDS011;3370;47.712;9.082;2023-02-21T05:13:21;19.73;;;13.30;;
6667;SDS011;3370;47.712;9.082;2023-02-21T05:15:47;16.63;;;12.13;;
6667;SDS011;3370;47.712;9.082;2023-02-21T05:18:13;17.57;;;12.97;;
6667;SDS011;3370;47.712;9.082;2023-02-21T05:20:46;21.50;;;13.07;;
6667;SDS011;3370;47.712;9.082;2023-02-21T05:23:13;21.17;;;14.90;;
6667;SDS011;3370;47.712;9.082;2023-02-21T05:25:41;22.40;;;13.00;;
6667;SDS011;3370;47.712;9.082;2023-02-21T05:28:07;21.80;;;14.03;;
6667;SDS011;3370;47.712;9.082;2023-02-21T05:30:33;19.27;;;13.10;;
6667;SDS011;3370;47.712;9.082;2023-02-21T05:33:00;21.10;;;13.50;;
6667;SDS011;3370;47.712;9.082;2023-02-21T05:35:25;26.33;;;13.83;;
6667;SDS011;3370;47.712;9.082;2023-02-21T05:37:51;19.37;;;14.03;;
6667;SDS011;3370;47.712;9.082;2023-02-21T05:40:17;20.93;;;14.20;;
6667;SDS011;3370;47.712;9.082;2023-02-21T05:42:43;20.33;;;12.63;;
6667;SDS011;3370;47.712;9.082;2023-02-21T05:45:09;20.07;;;12.93;;
6667;SDS011;3370;47.712;9.082;2023-02-21T05:47:36;20.30;;;13.20;;
6667;SDS011;3370;47.712;9.082;2023-02-21T05:50:03;20.87;;;14.17;;
6667;SDS011;3370;47.712;9.082;2023-02-21T05:52:29;16.87;;;12.57;;
6667;SDS011;3370;47.712;9.082;2023-02-21T05:54:55;19.80;;;13.40;;
6667;SDS011;3370;47.712;9.082;2023-02-21T05:57:21;17.23;;;12.63;;
6667;SDS011;3370;47.712;9.082;2023-02-21T05:59:47;23.00;;;12.57;;
6667;SDS011;3370;47.712;9.082;2023-02-21T06:02:13;21.53;;;12.93;;
6667;SDS011;3370;47.712;9.082;2023-02-21T06:04:40;18.30;;;11.73;;
6667;SDS011;3370;47.712;9.082;2023-02-21T06:07:05;17.63;;;12.07;;
6667;SDS011;3370;47.712;9.082;2023-02-21T06:09:31;17.53;;;12.80;;
6667;SDS011;3370;47.712;9.082;2023-02-21T06:11:58;19.73;;;12.37;;
6667;SDS011;3370;47.712;9.082;2023-02-21T06:14:24;21.13;;;14.87;;
6667;SDS011;3370;47.712;9.082;2023-02-21T06:16:50;19.00;;;14.20;;
6667;SDS011;3370;47.712;9.082;2023-02-21T06:19:17;16.70;;;12.37;;
6667;SDS011;3370;47.712;9.082;2023-02-21T06:21:43;19.20;;;12.50;;
6667;SDS011;3370;47.712;9.082;2023-02-21T06:24:10;19.00;;;13.63;;
6667;SDS011;3370;47.712;9.082;2023-02-21T06:26:36;16.10;;;12.57;;
6667;SDS011;3370;47.712;9.082;2023-02-21T06:29:04;17.87;;;12.70;;
6667;SDS011;3370;47.712;9.082;2023-02-21T06:31:30;19.00;;;12.83;;
6667;SDS011;3370;47.712;9.082;2023-02-21T06:33:56;17.97;;;13.40;;
6667;SDS011;3370;47.712;9.082;2023-02-21T06:36:24;19.77;;;12.83;;
6667;SDS011;3370;47.712;9.082;2023-02-21T06:38:52;19.30;;;13.47;;
6667;SDS011;3370;47.712;9.082;2023-02-21T06:41:28;15.67;;;12.13;;
6667;SDS011;3370;47.712;9.082;2023-02-21T06:43:55;14.40;;;11.70;;
6667;SDS011;3370;47.712;9.082;2023-02-21T06:46:23;17.13;;;12.20;;
6667;SDS011;3370;47.712;9.082;2023-02-21T06:48:52;18.60;;;12.43;;
6667;SDS011;3370;47.712;9.082;2023-02-21T06:51:18;18.87;;;11.90;;
6667;SDS011;3370;47.712;9.082;2023-02-21T06:53:47;18.57;;;12.60;;
6667;SDS011;3370;47.712;9.082;2023-02-21T06:56:14;19.87;;;12.30;;
6667;SDS011;3370;47.712;9.082;2023-02-21T06:58:41;17.80;;;12.40;;
6667;SDS011;3370;47.712;9.082;2023-02-21T07:01:07;17.63;;;11.97;;
6667;SDS011;3370;47.712;9.082;2023-02-21T07:03:32;18.77;;;15.50;;
6667;SDS011;3370;47.712;9.082;2023-02-21T07:05:58;25.93;;;14.50;;
6667;SDS011;3370;47.712;9.082;2023-02-21T07:08:24;18.33;;;13.40;;
6667;SDS011;3370;47.712;9.082;2023-02-21T07:10:50;17.73;;;13.20;;
6667;SDS011;3370;47.712;9.082;2023-02-21T07:13:16;20.23;;;13.20;;
6667;SDS011;3370;47.712;9.082;2023-02-21T07:15:42;22.10;;;12.10;;
6667;SDS011;3370;47.712;9.082;2023-02-21T07:18:07;16.83;;;12.63;;
6667;SDS011;3370;47.712;9.082;2023-02-21T07:20:33;14.00;;;11.50;;
6667;SDS011;3370;47.712;9.082;2023-02-21T07:22:59;16.83;;;12.40;;
6667;SDS011;3370;47.712;9.082;2023-02-21T07:25:25;17.10;;;12.57;;
6667;SDS011;3370;47.712;9.082;2023-02-21T07:27:51;18.37;;;13.57;;
6667;SDS011;3370;47.712;9.082;2023-02-21T07:30:17;19.70;;;13.07;;
6667;SDS011;3370;47.712;9.082;2023-02-21T07:32:43;19.37;;;13.40;;
6667;SDS011;3370;47.712;9.082;2023-02-21T07:35:10;19.23;;;13.17;;
6667;SDS011;3370;47.712;9.082;2023-02-21T07:37:36;18.30;;;13.73;;
6667;SDS011;3370;47.712;9.082;2023-02-21T07:40:03;19.53;;;14.00;;
6667;SDS011;3370;47.712;9.082;2023-02-21T07:42:33;21.43;;;13.20;;
6667;SDS011;3370;47.712;9.082;2023-02-21T07:44:59;19.03;;;13.37;;
6667;SDS011;3370;47.712;9.082;2023-02-21T07:47:25;17.23;;;12.07;;
6667;SDS011;3370;47.712;9.082;2023-02-21T07:49:52;21.50;;;13.50;;
6667;SDS011;3370;47.712;9.082;2023-02-21T07:52:19;19.53;;;13.93;;
6667;SDS011;3370;47.712;9.082;2023-02-21T07:54:46;21.20;;;14.50;;
6667;SDS011;3370;47.712;9.082;2023-02-21T07:57:12;21.47;;;15.03;;
6667;SDS011;3370;47.712;9.082;2023-02-21T07:59:40;22.53;;;15.77;;
6667;SDS011;3370;47.712;9.082;2023-02-21T08:02:06;21.73;;;14.63;;
6667;SDS011;3370;47.712;9.082;2023-02-21T08:04:37;22.73;;;14.60;;
6667;SDS011;3370;47.712;9.082;2023-02-21T08:07:03;22.80;;;15.73;;
6667;SDS011;3370;47.712;9.082;2023-02-21T08:09:29;23.70;;;14.50;;
6667;SDS011;3370;47.712;9.082;2023-02-21T08:11:55;29.30;;;15.03;;
6667;SDS011;3370;47.712;9.082;2023-02-21T08:14:21;27.43;;;15.00;;
6667;SDS011;3370;47.712;9.082;2023-02-21T08:16:47;18.50;;;14.00;;
6667;SDS011;3370;47.712;9.082;2023-02-21T08:19:13;20.23;;;14.70;;
6667;SDS011;3370;47.712;9.082;2023-02-21T08:21:43;20.13;;;14.97;;
6667;SDS011;3370;47.712;9.082;2023-02-21T08:24:10;19.27;;;13.60;;
6667;SDS011;3370;47.712;9.082;2023-02-21T08:26:36;18.00;;;14.10;;
6667;SDS011;3370;47.712;9.082;2023-02-21T08:29:04;21.13;;;13.90;;
6667;SDS011;3370;47.712;9.082;2023-02-21T08:31:33;21.23;;;14.63;;
6667;SDS011;3370;47.712;9.082;2023-02-21T08:34:03;19.23;;;13.93;;
6667;SDS011;3370;47.712;9.082;2023-02-21T08:36:34;19.13;;;14.33;;
6667;SDS011;3370;47.712;9.082;2023-02-21T08:39:03;18.67;;;14.47;;
6667;SDS011;3370;47.712;9.082;2023-02-21T08:41:36;19.93;;;14.10;;
6667;SDS011;3370;47.712;9.082;2023-02-21T08:44:15;18.83;;;14.43;;
6667;SDS011;3370;47.712;9.082;2023-02-21T08:46:42;23.40;;;13.17;;
6667;SDS011;3370;47.712;9.082;2023-02-21T08:49:09;21.53;;;15.57;;
6667;SDS011;3370;47.712;9.082;2023-02-21T08:51:35;19.03;;;13.50;;
6667;SDS011;3370;47.712;9.082;2023-02-21T08:54:02;16.87;;;11.80;;
6667;SDS011;3370;47.712;9.082;2023-02-21T08:56:28;19.43;;;11.70;;
6667;SDS011;3370;47.712;9.082;2023-02-21T08:58:55;15.37;;;11.90;;
6667;SDS011;3370;47.712;9.082;2023-02-21T09:01:21;15.00;;;11.13;;
6667;SDS011;3370;47.712;9.082;2023-02-21T09:03:48;17.73;;;11.57;;
6667;SDS011;3370;47.712;9.082;2023-02-21T09:06:15;17.37;;;12.10;;
6667;SDS011;3370;47.712;9.082;2023-02-21T09:08:42;18.20;;;12.77;;
6667;SDS011;3370;47.712;9.082;2023-02-21T09:11:08;20.30;;;12.37;;
6667;SDS011;3370;47.712;9.082;2023-02-21T09:13:33;16.43;;;12.20;;
6667;SDS011;3370;47.712;9.082;2023-02-21T09:16:00;15.57;;;11.90;;
6667;SDS011;3370;47.712;9.082;2023-02-21T09:18:28;26.87;;;11.70;;
6667;SDS011;3370;47.712;9.082;2023-02-21T09:20:55;16.60;;;12.73;;
6667;SDS011;3370;47.712;9.082;2023-02-21T09:23:22;19.70;;;11.63;;
6667;SDS011;3370;47.712;9.082;2023-02-21T09:25:50;19.07;;;11.43;;
6667;SDS011;3370;47.712;9.082;2023-02-21T09:28:16;17.23;;;11.23;;
6667;SDS011;3370;47.712;9.082;2023-02-21T09:30:43;14.20;;;11.87;;
6667;SDS011;3370;47.712;9.082;2023-02-21T09:33:09;16.43;;;11.70;;
6667;SDS011;3370;47.712;9.082;2023-02-21T09:35:35;16.83;;;10.73;;
6667;SDS011;3370;47.712;9.082;2023-02-21T09:38:03;14.03;;;9.40;;
6667;SDS011;3370;47.712;9.082;2023-02-21T09:40:49;10.80;;;8.30;;
6667;SDS011;3370;47.712;9.082;2023-02-21T09:46:24;10.07;;;7.40;;
6667;SDS011;3370;47.712;9.082;2023-02-21T09:49:12;11.70;;;8.70;;
6667;SDS011;3370;47.712;9.082;2023-02-21T09:51:42;12.93;;;8.00;;
6667;SDS011;3370;47.712;9.082;2023-02-21T09:54:24;12.07;;;8.20;;
6667;SDS011;3370;47.712;9.082;2023-02-21T09:57:11;15.60;;;9.77;;
6667;SDS011;3370;47.712;9.082;2023-02-21T09:59:39;13.90;;;10.00;;
6667;SDS011;3370;47.712;9.082;2023-02-21T10:04:54;14.33;;;11.17;;
6667;SDS011;3370;47.712;9.082;2023-02-21T10:07:59;15.43;;;10.30;;
6667;SDS011;3370;47.712;9.082;2023-02-21T10:13:58;23.07;;;12.30;;
6667;SDS011;3370;47.712;9.082;2023-02-21T10:16:36;21.03;;;14.50;;
6667;SDS011;3370;47.712;9.082;2023-02-21T10:19:27;18.50;;;13.13;;
6667;SDS011;3370;47.712;9.082;2023-02-21T10:22:13;24.60;;;14.97;;
6667;SDS011;3370;47.712;9.082;2023-02-21T10:24:49;21.27;;;14.27;;
6667;SDS011;3370;47.712;9.082;2023-02-21T10:27:19;24.00;;;15.03;;
6667;SDS011;3370;47.712;9.082;2023-02-21T10:30:06;27.43;;;17.00;;
6667;SDS011;3370;47.712;9.082;2023-02-21T10:32:35;22.90;;;15.50;;
6667;SDS011;3370;47.712;9.082;2023-02-21T10:35:02;38.20;;;22.63;;
6667;SDS011;3370;47.712;9.082;2023-02-21T10:40:50;30.77;;;22.23;;
6667;SDS011;3370;47.712;9.082;2023-02-21T10:43:18;33.60;;;21.80;;
6667;SDS011;3370;47.712;9.082;2023-02-21T10:46:18;35.57;;;21.50;;
6667;SDS011;3370;47.712;9.082;2023-02-21T10:52:03;26.80;;;15.23;;
6667;SDS011;3370;47.712;9.082;2023-02-21T10:54:37;21.23;;;14.20;;
6667;SDS011;3370;47.712;9.082;2023-02-21T10:57:07;23.43;;;16.20;;
6667;SDS011;3370;47.712;9.082;2023-02-21T10:59:40;30.43;;;16.03;;
6667;SDS011;3370;47.712;9.082;2023-02-21T11:02:29;27.23;;;15.20;;
6667;SDS011;3370;47.712;9.082;2023-02-21T11:04:55;21.40;;;14.20;;
6667;SDS011;3370;47.712;9.082;2023-02-21T11:07:40;20.00;;;13.03;;
6667;SDS011;3370;47.712;9.082;2023-02-21T11:10:36;22.20;;;14.10;;
6667;SDS011;3370;47.712;9.082;2023-02-21T11:13:21;19.60;;;12.70;;
6667;SDS011;3370;47.712;9.082;2023-02-21T11:15:48;26.90;;;13.90;;
6667;SDS011;3370;47.712;9.082;2023-02-21T11:18:39;23.00;;;14.63;;
6667;SDS011;3370;47.712;9.082;2023-02-21T11:21:10;17.40;;;12.30;;
6667;SDS011;3370;47.712;9.082;2023-02-21T11:23:45;17.30;;;13.23;;
6667;SDS011;3370;47.712;9.082;2023-02-21T11:26:26;19.33;;;13.43;;
6667;SDS011;3370;47.712;9.082;2023-02-21T11:29:07;16.67;;;11.43;;
6667;SDS011;3370;47.712;9.082;2023-02-21T11:31:37;21.00;;;13.13;;
6667;SDS011;3370;47.712;9.082;2023-02-21T11:34:04;16.10;;;11.93;;
6667;SDS011;3370;47.712;9.082;2023-02-21T11:36:34;19.23;;;12.90;;
6667;SDS011;3370;47.712;9.082;2023-02-21T11:39:22;16.30;;;11.40;;
6667;SDS011;3370;47.712;9.082;2023-02-21T11:41:56;15.10;;;11.93;;
6667;SDS011;3370;47.712;9.082;2023-02-21T11:44:26;20.73;;;13.20;;
6667;SDS011;3370;47.712;9.082;2023-02-21T11:47:22;19.83;;;11.97;;
6667;SDS011;3370;47.712;9.082;2023-02-21T11:50:06;16.93;;;11.80;;
6667;SDS011;3370;47.712;9.082;2023-02-21T11:53:20;21.50;;;12.53;;
6667;SDS011;3370;47.712;9.082;2023-02-21T11:59:11;18.77;;;11.90;;
6667;SDS011;3370;47.712;9.082;2023-02-21T12:07:41;16.23;;;11.17;;
6667;SDS011;3370;47.712;9.082;2023-02-21T12:10:37;19.33;;;11.43;;
6667;SDS011;3370;47.712;9.082;2023-02-21T12:13:35;19.10;;;11.77;;
6667;SDS011;3370;47.712;9.082;2023-02-21T12:31:17;13.07;;;10.13;;
6667;SDS011;3370;47.712;9.082;2023-02-21T12:37:09;11.23;;;9.37;;
6667;SDS011;3370;47.712;9.082;2023-02-21T12:45:32;14.00;;;11.13;;
6667;SDS011;3370;47.712;9.082;2023-02-21T12:48:33;21.80;;;13.53;;
6667;SDS011;3370;47.712;9.082;2023-02-21T12:51:26;17.40;;;13.23;;
6667;SDS011;3370;47.712;9.082;2023-02-21T12:55:05;19.40;;;13.20;;
6667;SDS011;3370;47.712;9.082;2023-02-21T13:00:19;20.50;;;14.47;;
6667;SDS011;3370;47.712;9.082;2023-02-21T13:02:57;18.93;;;14.60;;
6667;SDS011;3370;47.712;9.082;2023-02-21T13:05:49;17.87;;;14.37;;
6667;SDS011;3370;47.712;9.082;2023-02-21T13:11:32;19.33;;;13.53;;
6667;SDS011;3370;47.712;9.082;2023-02-21T13:14:33;16.77;;;13.67;;
6667;SDS011;3370;47.712;9.082;2023-02-21T13:17:10;17.50;;;13.40;;
6667;SDS011;3370;47.712;9.082;2023-02-21T13:19:42;16.33;;;14.00;;
6667;SDS011;3370;47.712;9.082;2023-02-21T13:22:20;15.80;;;13.53;;
6667;SDS011;3370;47.712;9.082;2023-02-21T13:28:19;15.73;;;13.60;;
6667;SDS011;3370;47.712;9.082;2023-02-21T13:30:51;20.30;;;12.80;;
6667;SDS011;3370;47.712;9.082;2023-02-21T13:33:34;14.17;;;11.37;;
6667;SDS011;3370;47.712;9.082;2023-02-21T13:39:02;14.77;;;11.83;;
6667;SDS011;3370;47.712;9.082;2023-02-21T13:41:48;16.30;;;12.90;;
6667;SDS011;3370;47.712;9.082;2023-02-21T13:44:39;13.57;;;11.87;;
6667;SDS011;3370;47.712;9.082;2023-02-21T13:47:10;17.80;;;13.40;;
6667;SDS011;3370;47.712;9.082;2023-02-21T13:49:52;15.83;;;13.07;;
6667;SDS011;3370;47.712;9.082;2023-02-21T13:52:27;21.20;;;14.00;;
6667;SDS011;3370;47.712;9.082;2023-02-21T13:57:39;17.70;;;14.57;;
6667;SDS011;3370;47.712;9.082;2023-02-21T14:13:32;17.70;;;12.90;;
6667;SDS011;3370;47.712;9.082;2023-02-21T14:18:47;17.60;;;13.00;;
6667;SDS011;3370;47.712;9.082;2023-02-21T14:24:23;18.13;;;13.03;;
6667;SDS011;3370;47.712;9.082;2023-02-21T14:26:55;18.33;;;12.17;;
6667;SDS011;3370;47.712;9.082;2023-02-21T14:29:37;14.30;;;12.07;;
6667;SDS011;3370;47.712;9.082;2023-02-21T14:34:38;17.73;;;12.00;;
6667;SDS011;3370;47.712;9.082;2023-02-21T14:48:42;18.70;;;12.03;;
6667;SDS011;3370;47.712;9.082;2023-02-21T15:00:03;16.57;;;11.43;;
6667;SDS011;3370;47.712;9.082;2023-02-21T15:06:00;15.23;;;10.30;;
6667;SDS011;3370;47.712;9.082;2023-02-21T15:08:40;17.83;;;10.17;;
6667;SDS011;3370;47.712;9.082;2023-02-21T15:11:17;12.57;;;10.57;;
6667;SDS011;3370;47.712;9.082;2023-02-21T15:16:52;12.63;;;9.80;;
6667;SDS011;3370;47.712;9.082;2023-02-21T15:24:41;15.13;;;12.20;;
6667;SDS011;3370;47.712;9.082;2023-02-21T15:27:50;16.70;;;12.10;;
6667;SDS011;3370;47.712;9.082;2023-02-21T15:30:29;15.73;;;12.00;;
6667;SDS011;3370;47.712;9.082;2023-02-21T15:35:54;18.37;;;12.30;;
6667;SDS011;3370;47.712;9.082;2023-02-21T15:38:29;20.17;;;12.10;;
6667;SDS011;3370;47.712;9.082;2023-02-21T15:41:34;12.93;;;10.73;;
6667;SDS011;3370;47.712;9.082;2023-02-21T15:44:14;13.53;;;11.60;;
6667;SDS011;3370;47.712;9.082;2023-02-21T15:47:09;19.10;;;11.43;;
6667;SDS011;3370;47.712;9.082;2023-02-21T15:49:59;17.50;;;11.53;;
6667;SDS011;3370;47.712;9.082;2023-02-21T15:52:55;16.90;;;11.53;;
6667;SDS011;3370;47.712;9.082;2023-02-21T15:55:40;16.60;;;10.20;;
6667;SDS011;3370;47.712;9.082;2023-02-21T16:00:46;13.53;;;11.00;;
6667;SDS011;3370;47.712;9.082;2023-02-21T16:03:31;16.10;;;11.70;;
6667;SDS011;3370;47.712;9.082;2023-02-21T16:08:54;15.60;;;11.60;;
6667;SDS011;3370;47.712;9.082;2023-02-21T16:14:33;19.10;;;9.73;;
6667;SDS011;3370;47.712;9.082;2023-02-21T16:22:37;14.40;;;10.67;;
6667;SDS011;3370;47.712;9.082;2023-02-21T16:27:37;16.30;;;11.30;;
6667;SDS011;3370;47.712;9.082;2023-02-21T16:30:05;17.60;;;11.57;;
6667;SDS011;3370;47.712;9.082;2023-02-21T16:32:36;14.73;;;10.83;;
6667;SDS011;3370;47.712;9.082;2023-02-21T16:35:03;14.10;;;10.70;;
6667;SDS011;3370;47.712;9.082;2023-02-21T16:37:30;17.57;;;10.47;;
6667;SDS011;3370;47.712;9.082;2023-02-21T16:39:56;14.70;;;9.67;;
6667;SDS011;3370;47.712;9.082;2023-02-21T16:42:22;18.20;;;10.87;;
6667;SDS011;3370;47.712;9.082;2023-02-21T16:44:49;14.30;;;9.63;;
6667;SDS011;3370;47.712;9.082;2023-02-21T16:47:15;12.80;;;10.53;;
6667;SDS011;3370;47.712;9.082;2023-02-21T16:49:43;20.17;;;9.40;;
6667;SDS011;3370;47.712;9.082;2023-02-21T16:52:11;23.20;;;10.53;;
6667;SDS011;3370;47.712;9.082;2023-02-21T16:54:39;20.70;;;10.50;;
6667;SDS011;3370;47.712;9.082;2023-02-21T16:57:05;15.27;;;10.00;;
6667;SDS011;3370;47.712;9.082;2023-02-21T16:59:31;13.10;;;9.00;;
6667;SDS011;3370;47.712;9.082;2023-02-21T17:01:57;13.40;;;8.47;;
6667;SDS011;3370;47.712;9.082;2023-02-21T17:04:25;14.90;;;8.63;;
6667;SDS011;3370;47.712;9.082;2023-02-21T17:07:00;16.20;;;8.50;;
6667;SDS011;3370;47.712;9.082;2023-02-21T17:09:30;12.43;;;8.20;;
6667;SDS011;3370;47.712;9.082;2023-02-21T17:11:57;22.73;;;9.17;;
6667;SDS011;3370;47.712;9.082;2023-02-21T17:14:24;15.17;;;8.77;;
6667;SDS011;3370;47.712;9.082;2023-02-21T17:16:50;13.27;;;9.40;;
6667;SDS011;3370;47.712;9.082;2023-02-21T17:19:17;12.57;;;8.90;;
6667;SDS011;3370;47.712;9.082;2023-02-21T17:21:48;12.83;;;9.53;;
6667;SDS011;3370;47.712;9.082;2023-02-21T17:24:14;19.60;;;10.10;;
6667;SDS011;3370;47.712;9.082;2023-02-21T17:26:40;15.97;;;8.67;;
6667;SDS011;3370;47.712;9.082;2023-02-21T17:29:07;14.50;;;8.87;;
6667;SDS011;3370;47.712;9.082;2023-02-21T17:31:34;15.63;;;10.57;;
6667;SDS011;3370;47.712;9.082;2023-02-21T17:34:00;19.50;;;11.83;;
6667;SDS011;3370;47.712;9.082;2023-02-21T17:36:26;15.27;;;11.00;;
6667;SDS011;3370;47.712;9.082;2023-02-21T17:38:54;16.70;;;11.03;;
6667;SDS011;3370;47.712;9.082;2023-02-21T17:41:21;17.93;;;11.13;;
6667;SDS011;3370;47.712;9.082;2023-02-21T17:43:47;17.30;;;12.03;;
6667;SDS011;3370;47.712;9.082;2023-02-21T17:46:14;16.20;;;10.53;;
6667;SDS011;3370;47.712;9.082;2023-02-21T17:48:42;15.23;;;9.70;;
6667;SDS011;3370;47.712;9.082;2023-02-21T17:51:09;11.70;;;8.57;;
6667;SDS011;3370;47.712;9.082;2023-02-21T17:53:42;18.37;;;11.53;;
6667;SDS011;3370;47.712;9.082;2023-02-21T17:56:08;19.20;;;10.57;;
6667;SDS011;3370;47.712;9.082;2023-02-21T17:58:34;12.00;;;7.87;;
6667;SDS011;3370;47.712;9.082;2023-02-21T18:00:59;11.57;;;7.93;;
6667;SDS011;3370;47.712;9.082;2023-02-21T18:03:25;15.10;;;7.87;;
6667;SDS011;3370;47.712;9.082;2023-02-21T18:05:51;14.90;;;8.43;;
6667;SDS011;3370;47.712;9.082;2023-02-21T18:08:17;9.73;;;8.03;;
6667;SDS011;3370;47.712;9.082;2023-02-21T18:10:44;12.57;;;9.43;;